NCAR-RAP Real-Time Weather Data

Output produced by METARs form (12 May 2021  12:09 UTC)
found at http://weather.rap.ucar.edu/surface/
 
KFTY 121153Z 30004KT 7SM -RA BKN006 OVC017 15/14 A3010 RMK AO2 SLP187 P0007 60032 70032 T01500139 10183 20150 53019
KFTY 121053Z 00000KT 5SM RA BR BKN006 OVC013 15/14 A3008 RMK AO2 SLP180 P0014 T01500144
KFTY 121044Z 00000KT 4SM RA BR BKN006 OVC012 15/14 A3008 RMK AO2 P0012 T01500144
KFTY 121031Z 00000KT 4SM RA BR FEW006 OVC012 16/14 A3007 RMK AO2 P0007 T01560144
KFTY 121021Z 30005KT 5SM RA BR BKN012 BKN025 OVC055 16/14 A3006 RMK AO2 P0005 T01560144
KFTY 120953Z 32003KT 6SM RA BR BKN028 OVC035 16/15 A3006 RMK AO2 SLP171 P0007 T01610150
KFTY 120853Z 35003KT 7SM -RA BKN028 BKN033 OVC047 16/16 A3004 RMK AO2 RAB01 SLP167 P0004 60004 T01610156 55006
KFTY 120753Z 31003KT 10SM OVC030 17/14 A3004 RMK AO2 SLP166 T01720139
KFTY 120653Z 14004KT 10SM BKN032 OVC043 18/13 A3005 RMK AO2 SLP170 T01780133
KFTY 120553Z 00000KT 10SM BKN080 OVC110 18/14 A3006 RMK AO2 SLP173 T01780139 10206 20172 58008
KFTY 120453Z 00000KT 10SM OVC090 18/14 A3007 RMK AO2 SLP178 T01830139 402390161
KFTY 120353Z 00000KT 10SM BKN095 18/15 A3009 RMK AO2 SLP183 T01780150
KFTY 120253Z 00000KT 10SM SCT034 BKN110 19/14 A3009 RMK AO2 SLP182 T01890139 50014
KFTY 120153Z 00000KT 10SM FEW120 19/14 A3009 RMK AO2 SLP183 T01890139
KFTY 120053Z 35003KT 10SM BKN043 BKN055 19/14 A3006 RMK AO2 SLP174 T01940144
KFTY 112353Z 33005KT 10SM BKN047 OVC055 21/16 A3005 RMK AO2 SLP169 T02060156 10239 20206 51003
KFTY 112253Z 32006KT 10SM CLR 21/16 A3004 RMK AO2 SLP167 T02110156
KFTY 112153Z 34006KT 10SM CLR 22/16 A3004 RMK AO2 SLP167 T02220161
KFTY 112053Z 34004KT 10SM FEW070 23/16 A3004 RMK AO2 SLP165 T02330161 58020